sensor_id;sensor_type;location;lat;lon;timestamp;temperature;humidity
67586;SHT31;55785;47.946;20.540;2023-04-25T00:02:02;12.85;87.22
67586;SHT31;55785;47.946;20.540;2023-04-25T00:04:27;12.86;87.14
67586;SHT31;55785;47.946;20.540;2023-04-25T00:06:56;12.83;87.28
67586;SHT31;55785;47.946;20.540;2023-04-25T00:09:22;12.86;87.28
67586;SHT31;55785;47.946;20.540;2023-04-25T00:11:47;12.91;87.27
67586;SHT31;55785;47.946;20.540;2023-04-25T00:14:13;12.91;87.22
67586;SHT31;55785;47.946;20.540;2023-04-25T00:16:39;12.86;87.36
67586;SHT31;55785;47.946;20.540;2023-04-25T00:19:04;12.85;87.40
67586;SHT31;55785;47.946;20.540;2023-04-25T00:21:30;12.89;87.41
67586;SHT31;55785;47.946;20.540;2023-04-25T00:23:55;12.85;87.59
67586;SHT31;55785;47.946;20.540;2023-04-25T00:26:21;12.79;87.74
67586;SHT31;55785;47.946;20.540;2023-04-25T00:28:47;12.71;88.07
67586;SHT31;55785;47.946;20.540;2023-04-25T00:31:12;12.69;88.13
67586;SHT31;55785;47.946;20.540;2023-04-25T00:33:38;12.69;88.25
67586;SHT31;55785;47.946;20.540;2023-04-25T00:36:03;12.72;88.21
67586;SHT31;55785;47.946;20.540;2023-04-25T00:38:29;12.71;88.24
67586;SHT31;55785;47.946;20.540;2023-04-25T00:40:54;12.71;88.27
67586;SHT31;55785;47.946;20.540;2023-04-25T00:43:20;12.65;88.20
67586;SHT31;55785;47.946;20.540;2023-04-25T00:45:47;12.65;88.18
67586;SHT31;55785;47.946;20.540;2023-04-25T00:48:14;12.61;88.29
67586;SHT31;55785;47.946;20.540;2023-04-25T00:50:39;12.59;88.33
67586;SHT31;55785;47.946;20.540;2023-04-25T00:53:04;12.55;88.31
67586;SHT31;55785;47.946;20.540;2023-04-25T00:55:30;12.56;88.31
67586;SHT31;55785;47.946;20.540;2023-04-25T00:57:55;12.55;88.27
67586;SHT31;55785;47.946;20.540;2023-04-25T01:00:21;12.58;88.38
67586;SHT31;55785;47.946;20.540;2023-04-25T01:02:46;12.61;88.31
67586;SHT31;55785;47.946;20.540;2023-04-25T01:05:12;12.62;88.30
67586;SHT31;55785;47.946;20.540;2023-04-25T01:07:37;12.59;88.29
67586;SHT31;55785;47.946;20.540;2023-04-25T01:10:04;12.61;88.22
67586;SHT31;55785;47.946;20.540;2023-04-25T01:12:29;12.54;88.21
67586;SHT31;55785;47.946;20.540;2023-04-25T01:14:55;12.52;88.23
67586;SHT31;55785;47.946;20.540;2023-04-25T01:17:20;12.48;88.26
67586;SHT31;55785;47.946;20.540;2023-04-25T01:19:46;12.42;88.42
67586;SHT31;55785;47.946;20.540;2023-04-25T01:22:11;12.44;88.46
67586;SHT31;55785;47.946;20.540;2023-04-25T01:24:37;12.34;88.66
67586;SHT31;55785;47.946;20.540;2023-04-25T01:27:02;12.31;88.83
67586;SHT31;55785;47.946;20.540;2023-04-25T01:29:28;12.30;88.83
67586;SHT31;55785;47.946;20.540;2023-04-25T01:31:54;12.27;88.90
67586;SHT31;55785;47.946;20.540;2023-04-25T01:34:20;12.23;88.97
67586;SHT31;55785;47.946;20.540;2023-04-25T01:36:49;12.20;89.08
67586;SHT31;55785;47.946;20.540;2023-04-25T01:39:15;12.18;89.07
67586;SHT31;55785;47.946;20.540;2023-04-25T01:41:40;12.17;89.10
67586;SHT31;55785;47.946;20.540;2023-04-25T01:44:06;12.20;89.07
67586;SHT31;55785;47.946;20.540;2023-04-25T01:46:33;12.20;89.10
67586;SHT31;55785;47.946;20.540;2023-04-25T01:48:58;12.20;89.07
67586;SHT31;55785;47.946;20.540;2023-04-25T01:51:24;12.18;89.13
67586;SHT31;55785;47.946;20.540;2023-04-25T01:53:50;12.17;89.08
67586;SHT31;55785;47.946;20.540;2023-04-25T01:56:17;12.16;89.13
67586;SHT31;55785;47.946;20.540;2023-04-25T01:58:43;12.12;89.42
67586;SHT31;55785;47.946;20.540;2023-04-25T02:01:08;12.12;89.39
67586;SHT31;55785;47.946;20.540;2023-04-25T02:03:34;12.16;89.33
67586;SHT31;55785;47.946;20.540;2023-04-25T02:05:59;12.08;89.47
67586;SHT31;55785;47.946;20.540;2023-04-25T02:08:25;12.16;89.32
67586;SHT31;55785;47.946;20.540;2023-04-25T02:10:50;12.21;89.29
67586;SHT31;55785;47.946;20.540;2023-04-25T02:13:15;12.21;89.19
67586;SHT31;55785;47.946;20.540;2023-04-25T02:15:41;12.23;89.20
67586;SHT31;55785;47.946;20.540;2023-04-25T02:18:06;12.23;89.16
67586;SHT31;55785;47.946;20.540;2023-04-25T02:20:32;12.24;89.06
67586;SHT31;55785;47.946;20.540;2023-04-25T02:22:58;12.24;89.08
67586;SHT31;55785;47.946;20.540;2023-04-25T02:25:23;12.28;89.09
67586;SHT31;55785;47.946;20.540;2023-04-25T02:27:48;12.25;89.06
67586;SHT31;55785;47.946;20.540;2023-04-25T02:30:14;12.24;89.16
67586;SHT31;55785;47.946;20.540;2023-04-25T02:32:40;12.21;89.17
67586;SHT31;55785;47.946;20.540;2023-04-25T02:35:06;12.20;89.19
67586;SHT31;55785;47.946;20.540;2023-04-25T02:37:35;12.20;89.19
67586;SHT31;55785;47.946;20.540;2023-04-25T02:40:00;12.21;89.15
67586;SHT31;55785;47.946;20.540;2023-04-25T02:42:27;12.24;89.09
67586;SHT31;55785;47.946;20.540;2023-04-25T02:44:52;12.25;89.04
67586;SHT31;55785;47.946;20.540;2023-04-25T02:47:18;12.27;88.93
67586;SHT31;55785;47.946;20.540;2023-04-25T02:49:44;12.27;88.89
67586;SHT31;55785;47.946;20.540;2023-04-25T02:52:09;12.28;88.84
67586;SHT31;55785;47.946;20.540;2023-04-25T02:54:34;12.27;88.83
67586;SHT31;55785;47.946;20.540;2023-04-25T02:57:00;12.25;88.88
67586;SHT31;55785;47.946;20.540;2023-04-25T02:59:25;12.21;88.85
67586;SHT31;55785;47.946;20.540;2023-04-25T03:01:50;12.23;88.80
67586;SHT31;55785;47.946;20.540;2023-04-25T03:04:16;12.24;88.85
67586;SHT31;55785;47.946;20.540;2023-04-25T03:06:41;12.24;88.79
67586;SHT31;55785;47.946;20.540;2023-04-25T03:09:07;12.23;88.77
67586;SHT31;55785;47.946;20.540;2023-04-25T03:11:32;12.20;88.80
67586;SHT31;55785;47.946;20.540;2023-04-25T03:13:57;12.17;88.84
67586;SHT31;55785;47.946;20.540;2023-04-25T03:16:23;12.14;88.96
67586;SHT31;55785;47.946;20.540;2023-04-25T03:18:49;12.14;88.96
67586;SHT31;55785;47.946;20.540;2023-04-25T03:21:14;12.14;88.92
67586;SHT31;55785;47.946;20.540;2023-04-25T03:23:39;12.16;88.91
67586;SHT31;55785;47.946;20.540;2023-04-25T03:26:05;12.13;88.82
67586;SHT31;55785;47.946;20.540;2023-04-25T03:28:30;12.04;88.98
67586;SHT31;55785;47.946;20.540;2023-04-25T03:30:55;12.06;89.02
67586;SHT31;55785;47.946;20.540;2023-04-25T03:33:21;12.07;88.93
67586;SHT31;55785;47.946;20.540;2023-04-25T03:35:46;12.13;88.87
67586;SHT31;55785;47.946;20.540;2023-04-25T03:38:12;12.03;88.90
67586;SHT31;55785;47.946;20.540;2023-04-25T03:40:37;12.00;89.07
67586;SHT31;55785;47.946;20.540;2023-04-25T03:43:02;11.97;89.04
67586;SHT31;55785;47.946;20.540;2023-04-25T03:45:28;12.01;89.06
67586;SHT31;55785;47.946;20.540;2023-04-25T03:47:53;11.97;89.02
67586;SHT31;55785;47.946;20.540;2023-04-25T03:50:20;11.98;88.79
67586;SHT31;55785;47.946;20.540;2023-04-25T03:52:45;11.97;88.63
67586;SHT31;55785;47.946;20.540;2023-04-25T03:55:10;11.94;88.62
67586;SHT31;55785;47.946;20.540;2023-04-25T03:57:36;11.97;88.50
67586;SHT31;55785;47.946;20.540;2023-04-25T04:00:01;12.00;88.45
67586;SHT31;55785;47.946;20.540;2023-04-25T04:02:26;12.08;88.26
67586;SHT31;55785;47.946;20.540;2023-04-25T04:04:52;12.07;88.26
67586;SHT31;55785;47.946;20.540;2023-04-25T04:07:17;12.10;88.34
67586;SHT31;55785;47.946;20.540;2023-04-25T04:09:42;12.10;88.36
67586;SHT31;55785;47.946;20.540;2023-04-25T04:12:08;12.18;88.35
67586;SHT31;55785;47.946;20.540;2023-04-25T04:14:33;12.13;88.56
67586;SHT31;55785;47.946;20.540;2023-04-25T04:16:58;12.16;88.54
67586;SHT31;55785;47.946;20.540;2023-04-25T04:19:24;12.14;88.57
67586;SHT31;55785;47.946;20.540;2023-04-25T04:21:49;12.17;88.57
67586;SHT31;55785;47.946;20.540;2023-04-25T04:24:14;12.23;88.41
67586;SHT31;55785;47.946;20.540;2023-04-25T04:26:40;12.27;88.34
67586;SHT31;55785;47.946;20.540;2023-04-25T04:29:05;12.28;88.23
67586;SHT31;55785;47.946;20.540;2023-04-25T04:31:30;12.31;88.22
67586;SHT31;55785;47.946;20.540;2023-04-25T04:33:56;12.31;88.23
67586;SHT31;55785;47.946;20.540;2023-04-25T04:36:21;12.31;88.21
67586;SHT31;55785;47.946;20.540;2023-04-25T04:38:46;12.35;88.09
67586;SHT31;55785;47.946;20.540;2023-04-25T04:41:12;12.27;88.10
67586;SHT31;55785;47.946;20.540;2023-04-25T04:43:37;12.25;87.92
67586;SHT31;55785;47.946;20.540;2023-04-25T04:46:03;12.25;87.87
67586;SHT31;55785;47.946;20.540;2023-04-25T04:48:28;12.24;87.80
67586;SHT31;55785;47.946;20.540;2023-04-25T04:50:54;12.31;87.93
67586;SHT31;55785;47.946;20.540;2023-04-25T04:53:19;12.31;87.64
67586;SHT31;55785;47.946;20.540;2023-04-25T04:55:44;12.35;87.50
67586;SHT31;55785;47.946;20.540;2023-04-25T04:58:09;12.37;87.17
67586;SHT31;55785;47.946;20.540;2023-04-25T05:00:35;12.40;86.99
67586;SHT31;55785;47.946;20.540;2023-04-25T05:03:00;12.42;86.95
67586;SHT31;55785;47.946;20.540;2023-04-25T05:05:26;12.44;87.50
67586;SHT31;55785;47.946;20.540;2023-04-25T05:07:51;12.35;86.95
67586;SHT31;55785;47.946;20.540;2023-04-25T05:10:20;12.40;87.36
67586;SHT31;55785;47.946;20.540;2023-04-25T05:12:45;12.41;87.74
67586;SHT31;55785;47.946;20.540;2023-04-25T05:15:11;12.41;87.87
67586;SHT31;55785;47.946;20.540;2023-04-25T05:17:36;12.42;88.26
67586;SHT31;55785;47.946;20.540;2023-04-25T05:20:02;12.42;88.15
67586;SHT31;55785;47.946;20.540;2023-04-25T05:22:27;12.46;88.27
67586;SHT31;55785;47.946;20.540;2023-04-25T05:24:52;12.52;88.24
67586;SHT31;55785;47.946;20.540;2023-04-25T05:27:18;12.54;88.15
67586;SHT31;55785;47.946;20.540;2023-04-25T05:29:44;12.62;87.70
67586;SHT31;55785;47.946;20.540;2023-04-25T05:32:09;12.55;87.42
67586;SHT31;55785;47.946;20.540;2023-04-25T05:34:35;12.54;87.39
67586;SHT31;55785;47.946;20.540;2023-04-25T05:37:00;12.61;87.31
67586;SHT31;55785;47.946;20.540;2023-04-25T05:39:26;12.65;87.75
67586;SHT31;55785;47.946;20.540;2023-04-25T05:41:51;12.65;87.89
67586;SHT31;55785;47.946;20.540;2023-04-25T05:44:17;12.68;87.86
67586;SHT31;55785;47.946;20.540;2023-04-25T05:46:43;12.65;87.83
67586;SHT31;55785;47.946;20.540;2023-04-25T05:49:08;12.69;87.73
67586;SHT31;55785;47.946;20.540;2023-04-25T05:51:33;12.71;87.88
67586;SHT31;55785;47.946;20.540;2023-04-25T05:53:59;12.71;87.77
67586;SHT31;55785;47.946;20.540;2023-04-25T05:56:24;12.69;87.50
67586;SHT31;55785;47.946;20.540;2023-04-25T05:58:49;12.68;87.24
67586;SHT31;55785;47.946;20.540;2023-04-25T06:01:15;12.58;86.56
67586;SHT31;55785;47.946;20.540;2023-04-25T06:03:40;12.49;86.42
67586;SHT31;55785;47.946;20.540;2023-04-25T06:06:05;12.46;86.90
67586;SHT31;55785;47.946;20.540;2023-04-25T06:08:31;12.38;87.59
67586;SHT31;55785;47.946;20.540;2023-04-25T06:10:56;12.25;87.39
67586;SHT31;55785;47.946;20.540;2023-04-25T06:13:22;12.16;87.31
67586;SHT31;55785;47.946;20.540;2023-04-25T06:15:47;12.18;87.42
67586;SHT31;55785;47.946;20.540;2023-04-25T06:18:12;12.23;87.23
67586;SHT31;55785;47.946;20.540;2023-04-25T06:20:38;12.24;87.26
67586;SHT31;55785;47.946;20.540;2023-04-25T06:23:03;12.28;87.16
67586;SHT31;55785;47.946;20.540;2023-04-25T06:25:28;12.35;87.14
67586;SHT31;55785;47.946;20.540;2023-04-25T06:27:54;12.28;87.21
67586;SHT31;55785;47.946;20.540;2023-04-25T06:30:19;12.20;87.39
67586;SHT31;55785;47.946;20.540;2023-04-25T06:32:44;12.20;87.39
67586;SHT31;55785;47.946;20.540;2023-04-25T06:35:10;12.25;87.45
67586;SHT31;55785;47.946;20.540;2023-04-25T06:37:35;12.31;87.59
67586;SHT31;55785;47.946;20.540;2023-04-25T06:40:00;12.38;87.53
67586;SHT31;55785;47.946;20.540;2023-04-25T06:42:26;12.49;87.48
67586;SHT31;55785;47.946;20.540;2023-04-25T06:44:51;12.58;87.62
67586;SHT31;55785;47.946;20.540;2023-04-25T06:47:16;12.64;87.71
67586;SHT31;55785;47.946;20.540;2023-04-25T06:49:42;12.68;87.59
67586;SHT31;55785;47.946;20.540;2023-04-25T06:52:07;12.71;87.50
67586;SHT31;55785;47.946;20.540;2023-04-25T06:54:32;12.72;87.10
67586;SHT31;55785;47.946;20.540;2023-04-25T06:56:58;12.66;86.80
67586;SHT31;55785;47.946;20.540;2023-04-25T06:59:23;12.68;86.54
67586;SHT31;55785;47.946;20.540;2023-04-25T07:01:48;12.71;86.59
67586;SHT31;55785;47.946;20.540;2023-04-25T07:04:14;12.75;86.78
67586;SHT31;55785;47.946;20.540;2023-04-25T07:06:39;12.66;86.64
67586;SHT31;55785;47.946;20.540;2023-04-25T07:09:04;12.65;86.32
67586;SHT31;55785;47.946;20.540;2023-04-25T07:11:30;12.66;86.54
67586;SHT31;55785;47.946;20.540;2023-04-25T07:13:55;12.68;86.60
67586;SHT31;55785;47.946;20.540;2023-04-25T07:16:20;12.61;86.36
67586;SHT31;55785;47.946;20.540;2023-04-25T07:18:46;12.64;86.52
67586;SHT31;55785;47.946;20.540;2023-04-25T07:21:11;12.64;86.81
67586;SHT31;55785;47.946;20.540;2023-04-25T07:23:36;12.55;86.42
67586;SHT31;55785;47.946;20.540;2023-04-25T07:26:02;12.44;86.43
67586;SHT31;55785;47.946;20.540;2023-04-25T07:28:27;12.42;86.67
67586;SHT31;55785;47.946;20.540;2023-04-25T07:30:52;12.28;86.68
67586;SHT31;55785;47.946;20.540;2023-04-25T07:33:18;12.10;86.56
67586;SHT31;55785;47.946;20.540;2023-04-25T07:35:43;12.10;86.49
67586;SHT31;55785;47.946;20.540;2023-04-25T07:38:08;12.07;86.82
67586;SHT31;55785;47.946;20.540;2023-04-25T07:40:33;11.93;86.62
67586;SHT31;55785;47.946;20.540;2023-04-25T07:42:59;11.90;86.47
67586;SHT31;55785;47.946;20.540;2023-04-25T07:45:24;12.01;86.90
67586;SHT31;55785;47.946;20.540;2023-04-25T07:47:49;12.07;87.12
67586;SHT31;55785;47.946;20.540;2023-04-25T07:50:15;11.96;86.74
67586;SHT31;55785;47.946;20.540;2023-04-25T07:52:40;11.98;87.05
67586;SHT31;55785;47.946;20.540;2023-04-25T07:55:06;12.01;87.16
67586;SHT31;55785;47.946;20.540;2023-04-25T07:57:31;11.98;87.58
67586;SHT31;55785;47.946;20.540;2023-04-25T07:59:56;12.07;87.33
67586;SHT31;55785;47.946;20.540;2023-04-25T08:02:22;12.14;87.49
67586;SHT31;55785;47.946;20.540;2023-04-25T08:04:47;12.06;87.46
67586;SHT31;55785;47.946;20.540;2023-04-25T08:07:12;12.04;87.41
67586;SHT31;55785;47.946;20.540;2023-04-25T08:09:38;11.96;86.71
67586;SHT31;55785;47.946;20.540;2023-04-25T08:12:04;11.93;86.63
67586;SHT31;55785;47.946;20.540;2023-04-25T08:14:30;11.94;86.41
67586;SHT31;55785;47.946;20.540;2023-04-25T08:16:55;12.00;86.17
67586;SHT31;55785;47.946;20.540;2023-04-25T08:19:20;12.08;86.07
67586;SHT31;55785;47.946;20.540;2023-04-25T08:21:46;12.13;86.40
67586;SHT31;55785;47.946;20.540;2023-04-25T08:24:11;12.20;86.41
67586;SHT31;55785;47.946;20.540;2023-04-25T08:26:36;12.23;86.22
67586;SHT31;55785;47.946;20.540;2023-04-25T08:29:02;12.24;85.87
67586;SHT31;55785;47.946;20.540;2023-04-25T08:31:27;12.28;85.99
67586;SHT31;55785;47.946;20.540;2023-04-25T08:33:52;12.30;85.86
67586;SHT31;55785;47.946;20.540;2023-04-25T08:36:18;12.21;85.64
67586;SHT31;55785;47.946;20.540;2023-04-25T08:38:43;12.18;85.51
67586;SHT31;55785;47.946;20.540;2023-04-25T08:41:11;12.18;85.35
67586;SHT31;55785;47.946;20.540;2023-04-25T08:43:37;12.21;85.73
67586;SHT31;55785;47.946;20.540;2023-04-25T08:46:02;12.27;86.42
67586;SHT31;55785;47.946;20.540;2023-04-25T08:48:28;12.18;85.57
67586;SHT31;55785;47.946;20.540;2023-04-25T08:50:55;12.10;85.70
67586;SHT31;55785;47.946;20.540;2023-04-25T08:53:28;12.14;86.42
67586;SHT31;55785;47.946;20.540;2023-04-25T08:55:56;12.07;86.40
67586;SHT31;55785;47.946;20.540;2023-04-25T08:58:21;12.00;86.99
67586;SHT31;55785;47.946;20.540;2023-04-25T09:00:48;11.97;87.23
67586;SHT31;55785;47.946;20.540;2023-04-25T09:03:13;11.87;87.24
67586;SHT31;55785;47.946;20.540;2023-04-25T09:05:40;11.75;87.35
67586;SHT31;55785;47.946;20.540;2023-04-25T09:08:05;11.69;88.66
67586;SHT31;55785;47.946;20.540;2023-04-25T09:10:31;11.70;88.26
67586;SHT31;55785;47.946;20.540;2023-04-25T09:13:07;11.63;87.91
67586;SHT31;55785;47.946;20.540;2023-04-25T09:15:33;11.55;88.65
67586;SHT31;55785;47.946;20.540;2023-04-25T09:31:23;11.77;88.10
67586;SHT31;55785;47.946;20.540;2023-04-25T09:33:49;11.87;87.90
67586;SHT31;55785;47.946;20.540;2023-04-25T09:36:14;11.98;87.32
67586;SHT31;55785;47.946;20.540;2023-04-25T09:38:44;11.96;86.51
67586;SHT31;55785;47.946;20.540;2023-04-25T09:41:10;11.82;87.53
67586;SHT31;55785;47.946;20.540;2023-04-25T09:43:36;11.94;87.39
67586;SHT31;55785;47.946;20.540;2023-04-25T09:46:02;12.04;87.09
67586;SHT31;55785;47.946;20.540;2023-04-25T09:48:32;12.08;87.03
67586;SHT31;55785;47.946;20.540;2023-04-25T09:51:10;11.94;86.17
67586;SHT31;55785;47.946;20.540;2023-04-25T09:53:44;11.90;86.55
67586;SHT31;55785;47.946;20.540;2023-04-25T09:56:11;11.76;86.36
67586;SHT31;55785;47.946;20.540;2023-04-25T09:58:38;11.77;86.71
67586;SHT31;55785;47.946;20.540;2023-04-25T10:01:06;11.80;86.99
67586;SHT31;55785;47.946;20.540;2023-04-25T10:03:34;11.73;87.30
67586;SHT31;55785;47.946;20.540;2023-04-25T10:06:02;11.76;86.72
67586;SHT31;55785;47.946;20.540;2023-04-25T10:08:35;11.77;86.78
67586;SHT31;55785;47.946;20.540;2023-04-25T10:11:03;11.73;86.65
67586;SHT31;55785;47.946;20.540;2023-04-25T10:13:29;11.65;86.95
67586;SHT31;55785;47.946;20.540;2023-04-25T10:15:57;11.66;86.47
67586;SHT31;55785;47.946;20.540;2023-04-25T10:18:24;11.58;86.26
67586;SHT31;55785;47.946;20.540;2023-04-25T10:20:49;11.54;86.27
67586;SHT31;55785;47.946;20.540;2023-04-25T10:23:15;11.54;87.00
67586;SHT31;55785;47.946;20.540;2023-04-25T10:25:41;11.49;85.66
67586;SHT31;55785;47.946;20.540;2023-04-25T10:28:07;11.69;86.49
67586;SHT31;55785;47.946;20.540;2023-04-25T10:30:32;11.75;86.14
67586;SHT31;55785;47.946;20.540;2023-04-25T10:32:59;11.77;86.29
67586;SHT31;55785;47.946;20.540;2023-04-25T10:35:27;11.63;85.60
67586;SHT31;55785;47.946;20.540;2023-04-25T10:38:03;11.76;86.71
67586;SHT31;55785;47.946;20.540;2023-04-25T10:40:29;11.75;86.14
67586;SHT31;55785;47.946;20.540;2023-04-25T10:42:55;11.70;85.97
67586;SHT31;55785;47.946;20.540;2023-04-25T10:45:21;11.70;84.32
67586;SHT31;55785;47.946;20.540;2023-04-25T10:47:46;11.80;84.61
67586;SHT31;55785;47.946;20.540;2023-04-25T10:50:14;11.80;85.02
67586;SHT31;55785;47.946;20.540;2023-04-25T10:52:39;11.75;84.71
67586;SHT31;55785;47.946;20.540;2023-04-25T10:55:05;11.73;84.77
67586;SHT31;55785;47.946;20.540;2023-04-25T10:57:42;11.83;85.33
67586;SHT31;55785;47.946;20.540;2023-04-25T11:00:08;11.82;84.63
67586;SHT31;55785;47.946;20.540;2023-04-25T11:02:37;11.91;84.63
67586;SHT31;55785;47.946;20.540;2023-04-25T11:05:03;12.00;85.71
67586;SHT31;55785;47.946;20.540;2023-04-25T11:07:44;11.98;85.98
67586;SHT31;55785;47.946;20.540;2023-04-25T11:10:14;11.90;85.81
67586;SHT31;55785;47.946;20.540;2023-04-25T11:12:39;11.91;85.64
67586;SHT31;55785;47.946;20.540;2023-04-25T11:15:06;11.93;85.61
67586;SHT31;55785;47.946;20.540;2023-04-25T11:17:31;11.76;85.74
67586;SHT31;55785;47.946;20.540;2023-04-25T11:19:57;11.58;85.28
67586;SHT31;55785;47.946;20.540;2023-04-25T11:22:23;11.66;86.50
67586;SHT31;55785;47.946;20.540;2023-04-25T11:24:48;11.76;86.30
67586;SHT31;55785;47.946;20.540;2023-04-25T11:27:14;11.86;86.69
67586;SHT31;55785;47.946;20.540;2023-04-25T11:29:40;11.91;86.34
67586;SHT31;55785;47.946;20.540;2023-04-25T11:32:05;11.90;85.85
67586;SHT31;55785;47.946;20.540;2023-04-25T11:34:31;11.73;83.31
67586;SHT31;55785;47.946;20.540;2023-04-25T11:36:57;11.73;84.18
67586;SHT31;55785;47.946;20.540;2023-04-25T11:39:26;11.75;83.96
67586;SHT31;55785;47.946;20.540;2023-04-25T11:41:52;11.77;84.08
67586;SHT31;55785;47.946;20.540;2023-04-25T11:44:18;11.63;84.51
67586;SHT31;55785;47.946;20.540;2023-04-25T11:46:45;11.38;83.02
67586;SHT31;55785;47.946;20.540;2023-04-25T11:49:11;11.25;83.01
67586;SHT31;55785;47.946;20.540;2023-04-25T11:51:44;11.12;82.21
67586;SHT31;55785;47.946;20.540;2023-04-25T11:54:10;11.12;82.30
67586;SHT31;55785;47.946;20.540;2023-04-25T11:56:36;11.15;84.00
67586;SHT31;55785;47.946;20.540;2023-04-25T11:59:05;11.27;83.97
67586;SHT31;55785;47.946;20.540;2023-04-25T12:01:32;11.08;82.64
67586;SHT31;55785;47.946;20.540;2023-04-25T12:03:58;11.08;82.56
67586;SHT31;55785;47.946;20.540;2023-04-25T12:06:28;11.14;82.28
67586;SHT31;55785;47.946;20.540;2023-04-25T12:09:03;11.07;83.31
67586;SHT31;55785;47.946;20.540;2023-04-25T12:11:32;11.12;82.94
67586;SHT31;55785;47.946;20.540;2023-04-25T12:14:04;11.18;83.28
67586;SHT31;55785;47.946;20.540;2023-04-25T12:16:29;11.19;81.54
67586;SHT31;55785;47.946;20.540;2023-04-25T12:18:55;11.06;80.27
67586;SHT31;55785;47.946;20.540;2023-04-25T12:21:21;11.12;83.09
67586;SHT31;55785;47.946;20.540;2023-04-25T12:23:46;11.10;83.28
67586;SHT31;55785;47.946;20.540;2023-04-25T12:26:12;11.06;83.45
67586;SHT31;55785;47.946;20.540;2023-04-25T12:28:37;11.03;82.69
67586;SHT31;55785;47.946;20.540;2023-04-25T12:31:06;11.04;82.45
67586;SHT31;55785;47.946;20.540;2023-04-25T12:33:33;11.04;83.70
67586;SHT31;55785;47.946;20.540;2023-04-25T12:36:00;11.08;83.25
67586;SHT31;55785;47.946;20.540;2023-04-25T12:38:29;11.06;82.80
67586;SHT31;55785;47.946;20.540;2023-04-25T12:40:56;11.07;82.92
67586;SHT31;55785;47.946;20.540;2023-04-25T12:43:22;11.10;82.55
67586;SHT31;55785;47.946;20.540;2023-04-25T12:45:49;11.10;82.72
67586;SHT31;55785;47.946;20.540;2023-04-25T12:48:14;11.03;82.17
67586;SHT31;55785;47.946;20.540;2023-04-25T12:50:40;10.96;80.50
67586;SHT31;55785;47.946;20.540;2023-04-25T12:53:05;11.01;82.61
67586;SHT31;55785;47.946;20.540;2023-04-25T12:55:30;10.93;81.86
67586;SHT31;55785;47.946;20.540;2023-04-25T12:57:56;10.96;84.20
67586;SHT31;55785;47.946;20.540;2023-04-25T13:00:21;10.93;81.68
67586;SHT31;55785;47.946;20.540;2023-04-25T13:02:46;11.12;84.13
67586;SHT31;55785;47.946;20.540;2023-04-25T13:05:12;10.80;81.42
67586;SHT31;55785;47.946;20.540;2023-04-25T13:07:38;10.77;84.15
67586;SHT31;55785;47.946;20.540;2023-04-25T13:10:03;10.76;84.63
67586;SHT31;55785;47.946;20.540;2023-04-25T13:12:29;10.77;85.02
67586;SHT31;55785;47.946;20.540;2023-04-25T13:14:54;10.76;84.52
67586;SHT31;55785;47.946;20.540;2023-04-25T13:17:19;10.67;83.37
67586;SHT31;55785;47.946;20.540;2023-04-25T13:19:45;10.60;81.55
67586;SHT31;55785;47.946;20.540;2023-04-25T13:22:10;10.77;83.30
67586;SHT31;55785;47.946;20.540;2023-04-25T13:24:35;10.87;81.18
67586;SHT31;55785;47.946;20.540;2023-04-25T13:27:01;11.06;83.01
67586;SHT31;55785;47.946;20.540;2023-04-25T13:29:26;11.08;83.09
67586;SHT31;55785;47.946;20.540;2023-04-25T13:31:51;10.84;81.82
67586;SHT31;55785;47.946;20.540;2023-04-25T13:34:17;10.70;82.41
67586;SHT31;55785;47.946;20.540;2023-04-25T13:36:42;10.70;81.41
67586;SHT31;55785;47.946;20.540;2023-04-25T13:39:07;10.73;80.49
67586;SHT31;55785;47.946;20.540;2023-04-25T13:41:33;10.85;82.49
67586;SHT31;55785;47.946;20.540;2023-04-25T13:43:58;10.96;82.82
67586;SHT31;55785;47.946;20.540;2023-04-25T13:46:23;11.12;81.51
67586;SHT31;55785;47.946;20.540;2023-04-25T13:48:49;11.29;82.58
67586;SHT31;55785;47.946;20.540;2023-04-25T13:51:15;11.43;82.51
67586;SHT31;55785;47.946;20.540;2023-04-25T13:53:41;11.27;80.88
67586;SHT31;55785;47.946;20.540;2023-04-25T13:56:06;11.21;81.32
67586;SHT31;55785;47.946;20.540;2023-04-25T13:58:32;11.18;81.74
67586;SHT31;55785;47.946;20.540;2023-04-25T14:00:57;11.32;83.82
67586;SHT31;55785;47.946;20.540;2023-04-25T14:03:22;11.25;79.80
67586;SHT31;55785;47.946;20.540;2023-04-25T14:05:48;11.38;80.94
67586;SHT31;55785;47.946;20.540;2023-04-25T14:08:13;11.46;80.33
67586;SHT31;55785;47.946;20.540;2023-04-25T14:10:38;11.32;79.17
67586;SHT31;55785;47.946;20.540;2023-04-25T14:13:04;11.34;78.77
67586;SHT31;55785;47.946;20.540;2023-04-25T14:15:31;11.32;78.08
67586;SHT31;55785;47.946;20.540;2023-04-25T14:17:56;11.43;79.41
67586;SHT31;55785;47.946;20.540;2023-04-25T14:20:22;11.46;79.84
67586;SHT31;55785;47.946;20.540;2023-04-25T14:22:47;11.36;78.72
67586;SHT31;55785;47.946;20.540;2023-04-25T14:25:12;11.32;78.26
67586;SHT31;55785;47.946;20.540;2023-04-25T14:27:38;11.46;80.74
67586;SHT31;55785;47.946;20.540;2023-04-25T14:30:03;11.55;80.83
67586;SHT31;55785;47.946;20.540;2023-04-25T14:32:29;11.55;80.70
67586;SHT31;55785;47.946;20.540;2023-04-25T14:34:54;11.65;80.59
67586;SHT31;55785;47.946;20.540;2023-04-25T14:37:20;11.66;79.06
67586;SHT31;55785;47.946;20.540;2023-04-25T14:39:45;11.73;79.68
67586;SHT31;55785;47.946;20.540;2023-04-25T14:42:10;11.77;80.09
67586;SHT31;55785;47.946;20.540;2023-04-25T14:44:37;11.82;80.79
67586;SHT31;55785;47.946;20.540;2023-04-25T14:47:03;11.83;77.59
67586;SHT31;55785;47.946;20.540;2023-04-25T14:49:28;11.80;77.14
67586;SHT31;55785;47.946;20.540;2023-04-25T14:51:53;11.87;78.77
67586;SHT31;55785;47.946;20.540;2023-04-25T14:54:19;11.91;79.76
67586;SHT31;55785;47.946;20.540;2023-04-25T14:56:44;11.79;80.74
67586;SHT31;55785;47.946;20.540;2023-04-25T14:59:09;11.42;75.86
67586;SHT31;55785;47.946;20.540;2023-04-25T15:01:35;11.52;78.95
67586;SHT31;55785;47.946;20.540;2023-04-25T15:04:00;11.43;78.24
67586;SHT31;55785;47.946;20.540;2023-04-25T15:06:25;11.43;78.67
67586;SHT31;55785;47.946;20.540;2023-04-25T15:08:51;11.54;79.25
67586;SHT31;55785;47.946;20.540;2023-04-25T15:11:16;11.36;78.40
67586;SHT31;55785;47.946;20.540;2023-04-25T15:13:41;11.42;76.31
67586;SHT31;55785;47.946;20.540;2023-04-25T15:16:07;11.54;76.40
67586;SHT31;55785;47.946;20.540;2023-04-25T15:18:32;11.62;77.85
67586;SHT31;55785;47.946;20.540;2023-04-25T15:20:57;11.52;74.22